sensor_id;sensor_type;location;lat;lon;timestamp;P1;durP1;ratioP1;P2;durP2;ratioP2
41436;SDS011;27178;49.460;10.850;2024-03-25T00:02:08;4.00;;;2.60;;
41436;SDS011;27178;49.460;10.850;2024-03-25T00:04:35;3.60;;;2.65;;
41436;SDS011;27178;49.460;10.850;2024-03-25T00:07:03;4.77;;;2.93;;
41436;SDS011;27178;49.460;10.850;2024-03-25T00:09:30;3.65;;;2.70;;
41436;SDS011;27178;49.460;10.850;2024-03-25T00:11:57;3.17;;;2.50;;
41436;SDS011;27178;49.460;10.850;2024-03-25T00:14:24;3.00;;;2.70;;
41436;SDS011;27178;49.460;10.850;2024-03-25T00:16:51;2.70;;;2.50;;
41436;SDS011;27178;49.460;10.850;2024-03-25T00:19:18;4.20;;;3.03;;
41436;SDS011;27178;49.460;10.850;2024-03-25T00:21:45;3.80;;;2.90;;
41436;SDS011;27178;49.460;10.850;2024-03-25T00:24:13;3.80;;;2.92;;
41436;SDS011;27178;49.460;10.850;2024-03-25T00:26:41;2.80;;;2.53;;
41436;SDS011;27178;49.460;10.850;2024-03-25T00:29:07;3.10;;;2.70;;
41436;SDS011;27178;49.460;10.850;2024-03-25T00:31:35;2.90;;;2.50;;
41436;SDS011;27178;49.460;10.850;2024-03-25T00:34:01;3.25;;;2.78;;
41436;SDS011;27178;49.460;10.850;2024-03-25T00:36:28;2.75;;;2.42;;
41436;SDS011;27178;49.460;10.850;2024-03-25T00:38:54;3.10;;;2.53;;
41436;SDS011;27178;49.460;10.850;2024-03-25T00:41:23;4.13;;;2.70;;
41436;SDS011;27178;49.460;10.850;2024-03-25T00:43:49;3.07;;;2.70;;
41436;SDS011;27178;49.460;10.850;2024-03-25T00:46:16;4.05;;;2.80;;
41436;SDS011;27178;49.460;10.850;2024-03-25T00:48:43;4.77;;;2.70;;
41436;SDS011;27178;49.460;10.850;2024-03-25T00:51:10;3.80;;;3.08;;
41436;SDS011;27178;49.460;10.850;2024-03-25T00:53:36;3.60;;;3.27;;
41436;SDS011;27178;49.460;10.850;2024-03-25T00:56:04;3.20;;;2.90;;
41436;SDS011;27178;49.460;10.850;2024-03-25T00:58:32;3.50;;;3.10;;
41436;SDS011;27178;49.460;10.850;2024-03-25T01:01:00;3.53;;;2.93;;
41436;SDS011;27178;49.460;10.850;2024-03-25T01:03:26;4.17;;;2.90;;
41436;SDS011;27178;49.460;10.850;2024-03-25T01:05:53;4.27;;;2.70;;
41436;SDS011;27178;49.460;10.850;2024-03-25T01:08:20;4.80;;;2.77;;
41436;SDS011;27178;49.460;10.850;2024-03-25T01:10:47;3.30;;;2.90;;
41436;SDS011;27178;49.460;10.850;2024-03-25T01:13:13;3.42;;;3.05;;
41436;SDS011;27178;49.460;10.850;2024-03-25T01:15:42;4.18;;;2.88;;
41436;SDS011;27178;49.460;10.850;2024-03-25T01:18:08;2.93;;;2.63;;
41436;SDS011;27178;49.460;10.850;2024-03-25T01:20:36;3.90;;;3.07;;
41436;SDS011;27178;49.460;10.850;2024-03-25T01:23:02;3.15;;;2.63;;
41436;SDS011;27178;49.460;10.850;2024-03-25T01:25:30;4.80;;;2.58;;
41436;SDS011;27178;49.460;10.850;2024-03-25T01:27:56;3.40;;;3.00;;
41436;SDS011;27178;49.460;10.850;2024-03-25T01:30:24;3.33;;;3.03;;
41436;SDS011;27178;49.460;10.850;2024-03-25T01:32:51;3.28;;;2.67;;
41436;SDS011;27178;49.460;10.850;2024-03-25T01:35:19;3.17;;;2.88;;
41436;SDS011;27178;49.460;10.850;2024-03-25T01:37:46;3.67;;;3.33;;
41436;SDS011;27178;49.460;10.850;2024-03-25T01:40:13;3.20;;;2.80;;
41436;SDS011;27178;49.460;10.850;2024-03-25T01:42:40;5.10;;;3.00;;
41436;SDS011;27178;49.460;10.850;2024-03-25T01:45:08;3.15;;;2.85;;
41436;SDS011;27178;49.460;10.850;2024-03-25T01:47:35;3.70;;;2.80;;
41436;SDS011;27178;49.460;10.850;2024-03-25T01:50:06;3.17;;;2.87;;
41436;SDS011;27178;49.460;10.850;2024-03-25T01:52:33;5.13;;;2.60;;
41436;SDS011;27178;49.460;10.850;2024-03-25T01:55:00;4.23;;;2.60;;
41436;SDS011;27178;49.460;10.850;2024-03-25T01:57:29;3.27;;;2.57;;
41436;SDS011;27178;49.460;10.850;2024-03-25T01:59:56;3.30;;;3.00;;
41436;SDS011;27178;49.460;10.850;2024-03-25T02:02:23;5.07;;;2.67;;
41436;SDS011;27178;49.460;10.850;2024-03-25T02:04:51;4.17;;;2.53;;
41436;SDS011;27178;49.460;10.850;2024-03-25T02:07:19;3.97;;;3.03;;
41436;SDS011;27178;49.460;10.850;2024-03-25T02:09:49;3.13;;;2.83;;
41436;SDS011;27178;49.460;10.850;2024-03-25T02:12:15;2.93;;;2.73;;
41436;SDS011;27178;49.460;10.850;2024-03-25T02:14:43;2.88;;;2.60;;
41436;SDS011;27178;49.460;10.850;2024-03-25T02:17:09;2.50;;;2.30;;
41436;SDS011;27178;49.460;10.850;2024-03-25T02:19:37;3.13;;;2.70;;
41436;SDS011;27178;49.460;10.850;2024-03-25T02:22:04;2.65;;;2.45;;
41436;SDS011;27178;49.460;10.850;2024-03-25T02:24:33;2.80;;;2.50;;
41436;SDS011;27178;49.460;10.850;2024-03-25T02:27:01;4.00;;;2.57;;
41436;SDS011;27178;49.460;10.850;2024-03-25T02:29:33;3.37;;;2.90;;
41436;SDS011;27178;49.460;10.850;2024-03-25T02:31:59;3.60;;;3.00;;
41436;SDS011;27178;49.460;10.850;2024-03-25T02:34:27;4.80;;;3.53;;
41436;SDS011;27178;49.460;10.850;2024-03-25T02:36:53;3.22;;;2.83;;
41436;SDS011;27178;49.460;10.850;2024-03-25T02:39:21;3.43;;;3.00;;
41436;SDS011;27178;49.460;10.850;2024-03-25T02:41:50;3.53;;;3.23;;
41436;SDS011;27178;49.460;10.850;2024-03-25T02:44:18;7.40;;;3.20;;
41436;SDS011;27178;49.460;10.850;2024-03-25T02:46:45;3.90;;;3.47;;
41436;SDS011;27178;49.460;10.850;2024-03-25T02:49:12;5.28;;;3.10;;
41436;SDS011;27178;49.460;10.850;2024-03-25T02:51:39;4.50;;;3.57;;
41436;SDS011;27178;49.460;10.850;2024-03-25T02:54:06;3.57;;;3.13;;
41436;SDS011;27178;49.460;10.850;2024-03-25T02:56:33;3.13;;;2.83;;
41436;SDS011;27178;49.460;10.850;2024-03-25T02:59:01;3.20;;;2.90;;
41436;SDS011;27178;49.460;10.850;2024-03-25T03:01:29;6.00;;;3.43;;
41436;SDS011;27178;49.460;10.850;2024-03-25T03:03:56;3.80;;;2.90;;
41436;SDS011;27178;49.460;10.850;2024-03-25T03:06:22;3.27;;;2.97;;
41436;SDS011;27178;49.460;10.850;2024-03-25T03:08:50;2.83;;;2.58;;
41436;SDS011;27178;49.460;10.850;2024-03-25T03:11:16;5.57;;;3.43;;
41436;SDS011;27178;49.460;10.850;2024-03-25T03:13:43;3.83;;;3.23;;
41436;SDS011;27178;49.460;10.850;2024-03-25T03:16:09;3.47;;;3.17;;
41436;SDS011;27178;49.460;10.850;2024-03-25T03:18:39;3.67;;;3.27;;
41436;SDS011;27178;49.460;10.850;2024-03-25T03:21:05;4.57;;;3.47;;
41436;SDS011;27178;49.460;10.850;2024-03-25T03:23:35;3.33;;;3.03;;
41436;SDS011;27178;49.460;10.850;2024-03-25T03:26:01;3.57;;;3.23;;
41436;SDS011;27178;49.460;10.850;2024-03-25T03:28:29;4.70;;;3.53;;
41436;SDS011;27178;49.460;10.850;2024-03-25T03:30:55;3.30;;;3.00;;
41436;SDS011;27178;49.460;10.850;2024-03-25T03:33:22;3.60;;;3.30;;
41436;SDS011;27178;49.460;10.850;2024-03-25T03:35:52;3.90;;;3.53;;
41436;SDS011;27178;49.460;10.850;2024-03-25T03:38:21;4.07;;;3.37;;
41436;SDS011;27178;49.460;10.850;2024-03-25T03:40:55;6.23;;;3.90;;
41436;SDS011;27178;49.460;10.850;2024-03-25T03:43:23;4.00;;;3.60;;
41436;SDS011;27178;49.460;10.850;2024-03-25T03:45:50;3.73;;;3.40;;
41436;SDS011;27178;49.460;10.850;2024-03-25T03:48:17;4.37;;;3.63;;
41436;SDS011;27178;49.460;10.850;2024-03-25T03:50:43;4.23;;;3.33;;
41436;SDS011;27178;49.460;10.850;2024-03-25T03:53:12;3.97;;;3.67;;
41436;SDS011;27178;49.460;10.850;2024-03-25T03:55:38;3.80;;;3.40;;
41436;SDS011;27178;49.460;10.850;2024-03-25T03:58:06;4.23;;;3.73;;
41436;SDS011;27178;49.460;10.850;2024-03-25T04:00:35;3.92;;;3.53;;
41436;SDS011;27178;49.460;10.850;2024-03-25T04:03:03;4.80;;;3.47;;
41436;SDS011;27178;49.460;10.850;2024-03-25T04:05:30;3.73;;;3.43;;
41436;SDS011;27178;49.460;10.850;2024-03-25T04:07:57;4.20;;;3.70;;
41436;SDS011;27178;49.460;10.850;2024-03-25T04:10:26;4.23;;;3.83;;
41436;SDS011;27178;49.460;10.850;2024-03-25T04:12:54;5.80;;;3.70;;
41436;SDS011;27178;49.460;10.850;2024-03-25T04:15:21;3.40;;;3.10;;
41436;SDS011;27178;49.460;10.850;2024-03-25T04:17:48;4.40;;;4.00;;
41436;SDS011;27178;49.460;10.850;2024-03-25T04:20:15;5.18;;;4.22;;
41436;SDS011;27178;49.460;10.850;2024-03-25T04:22:42;5.83;;;3.90;;
41436;SDS011;27178;49.460;10.850;2024-03-25T04:25:09;4.00;;;3.60;;
41436;SDS011;27178;49.460;10.850;2024-03-25T04:27:39;4.30;;;3.67;;
41436;SDS011;27178;49.460;10.850;2024-03-25T04:30:05;3.90;;;3.60;;
41436;SDS011;27178;49.460;10.850;2024-03-25T04:32:33;3.77;;;3.47;;
41436;SDS011;27178;49.460;10.850;2024-03-25T04:35:00;3.87;;;3.50;;
41436;SDS011;27178;49.460;10.850;2024-03-25T04:37:27;5.63;;;3.93;;
41436;SDS011;27178;49.460;10.850;2024-03-25T04:39:54;4.00;;;3.60;;
41436;SDS011;27178;49.460;10.850;2024-03-25T04:42:20;3.93;;;3.60;;
41436;SDS011;27178;49.460;10.850;2024-03-25T04:44:48;5.03;;;3.63;;
41436;SDS011;27178;49.460;10.850;2024-03-25T04:47:15;4.70;;;4.17;;
41436;SDS011;27178;49.460;10.850;2024-03-25T04:49:41;4.23;;;3.83;;
41436;SDS011;27178;49.460;10.850;2024-03-25T04:52:08;4.63;;;4.23;;
41436;SDS011;27178;49.460;10.850;2024-03-25T04:54:36;3.93;;;3.43;;
41436;SDS011;27178;49.460;10.850;2024-03-25T04:57:02;4.07;;;3.67;;
41436;SDS011;27178;49.460;10.850;2024-03-25T04:59:29;5.13;;;3.90;;
41436;SDS011;27178;49.460;10.850;2024-03-25T05:01:56;3.83;;;3.40;;
41436;SDS011;27178;49.460;10.850;2024-03-25T05:04:22;4.23;;;3.83;;
41436;SDS011;27178;49.460;10.850;2024-03-25T05:06:49;4.17;;;3.30;;
41436;SDS011;27178;49.460;10.850;2024-03-25T05:09:15;6.53;;;4.17;;
41436;SDS011;27178;49.460;10.850;2024-03-25T05:11:41;4.00;;;3.70;;
41436;SDS011;27178;49.460;10.850;2024-03-25T05:14:08;4.50;;;3.83;;
41436;SDS011;27178;49.460;10.850;2024-03-25T05:16:34;4.30;;;3.40;;
41436;SDS011;27178;49.460;10.850;2024-03-25T05:19:02;4.27;;;3.67;;
41436;SDS011;27178;49.460;10.850;2024-03-25T05:21:28;5.13;;;3.90;;
41436;SDS011;27178;49.460;10.850;2024-03-25T05:23:54;4.88;;;3.50;;
41436;SDS011;27178;49.460;10.850;2024-03-25T05:26:20;4.93;;;3.80;;
41436;SDS011;27178;49.460;10.850;2024-03-25T05:28:51;5.33;;;3.80;;
41436;SDS011;27178;49.460;10.850;2024-03-25T05:31:18;5.67;;;3.80;;
41436;SDS011;27178;49.460;10.850;2024-03-25T05:33:44;4.13;;;3.57;;
41436;SDS011;27178;49.460;10.850;2024-03-25T05:36:12;4.20;;;3.30;;
41436;SDS011;27178;49.460;10.850;2024-03-25T05:38:38;4.83;;;3.70;;
41436;SDS011;27178;49.460;10.850;2024-03-25T05:41:05;4.03;;;3.33;;
41436;SDS011;27178;49.460;10.850;2024-03-25T05:43:31;6.10;;;3.37;;
41436;SDS011;27178;49.460;10.850;2024-03-25T05:45:57;6.28;;;3.42;;
41436;SDS011;27178;49.460;10.850;2024-03-25T05:48:24;4.33;;;3.30;;
41436;SDS011;27178;49.460;10.850;2024-03-25T05:51:00;4.70;;;3.50;;
41436;SDS011;27178;49.460;10.850;2024-03-25T05:53:28;5.50;;;3.20;;
41436;SDS011;27178;49.460;10.850;2024-03-25T05:55:54;4.30;;;3.30;;
41436;SDS011;27178;49.460;10.850;2024-03-25T05:58:21;4.13;;;3.40;;
41436;SDS011;27178;49.460;10.850;2024-03-25T06:00:48;4.33;;;3.63;;
41436;SDS011;27178;49.460;10.850;2024-03-25T06:03:14;5.78;;;4.00;;
41436;SDS011;27178;49.460;10.850;2024-03-25T06:05:41;3.90;;;3.50;;
41436;SDS011;27178;49.460;10.850;2024-03-25T06:08:07;4.43;;;3.13;;
41436;SDS011;27178;49.460;10.850;2024-03-25T06:10:38;4.80;;;3.37;;
41436;SDS011;27178;49.460;10.850;2024-03-25T06:13:05;3.57;;;3.00;;
41436;SDS011;27178;49.460;10.850;2024-03-25T06:15:31;3.47;;;2.90;;
41436;SDS011;27178;49.460;10.850;2024-03-25T06:17:58;4.13;;;2.93;;
41436;SDS011;27178;49.460;10.850;2024-03-25T06:20:24;5.30;;;3.10;;
41436;SDS011;27178;49.460;10.850;2024-03-25T06:22:50;5.17;;;3.37;;
41436;SDS011;27178;49.460;10.850;2024-03-25T06:25:16;4.03;;;3.00;;
41436;SDS011;27178;49.460;10.850;2024-03-25T06:27:44;3.67;;;2.42;;
41436;SDS011;27178;49.460;10.850;2024-03-25T06:30:11;6.20;;;3.83;;
41436;SDS011;27178;49.460;10.850;2024-03-25T06:32:56;3.97;;;3.10;;
41436;SDS011;27178;49.460;10.850;2024-03-25T06:35:42;5.53;;;3.03;;
41436;SDS011;27178;49.460;10.850;2024-03-25T06:38:08;3.33;;;2.97;;
41436;SDS011;27178;49.460;10.850;2024-03-25T06:40:35;3.63;;;3.30;;
41436;SDS011;27178;49.460;10.850;2024-03-25T06:43:03;3.97;;;3.07;;
41436;SDS011;27178;49.460;10.850;2024-03-25T06:45:29;4.10;;;3.00;;
41436;SDS011;27178;49.460;10.850;2024-03-25T06:47:56;3.90;;;3.13;;
41436;SDS011;27178;49.460;10.850;2024-03-25T06:50:22;3.07;;;2.77;;
41436;SDS011;27178;49.460;10.850;2024-03-25T06:52:49;8.83;;;3.50;;
41436;SDS011;27178;49.460;10.850;2024-03-25T06:55:15;3.77;;;3.27;;
41436;SDS011;27178;49.460;10.850;2024-03-25T06:57:42;5.15;;;3.38;;
41436;SDS011;27178;49.460;10.850;2024-03-25T07:00:10;8.02;;;3.28;;
41436;SDS011;27178;49.460;10.850;2024-03-25T07:02:38;4.53;;;2.97;;
41436;SDS011;27178;49.460;10.850;2024-03-25T07:05:04;4.70;;;3.17;;
41436;SDS011;27178;49.460;10.850;2024-03-25T07:07:31;4.07;;;3.27;;
41436;SDS011;27178;49.460;10.850;2024-03-25T07:09:57;7.00;;;3.90;;
41436;SDS011;27178;49.460;10.850;2024-03-25T07:12:24;4.30;;;2.70;;
41436;SDS011;27178;49.460;10.850;2024-03-25T07:14:50;4.60;;;3.10;;
41436;SDS011;27178;49.460;10.850;2024-03-25T07:17:17;3.67;;;2.43;;
41436;SDS011;27178;49.460;10.850;2024-03-25T07:19:44;4.67;;;2.80;;
41436;SDS011;27178;49.460;10.850;2024-03-25T07:22:10;3.77;;;2.57;;
41436;SDS011;27178;49.460;10.850;2024-03-25T07:24:36;3.90;;;2.90;;
41436;SDS011;27178;49.460;10.850;2024-03-25T07:27:03;4.70;;;3.07;;
41436;SDS011;27178;49.460;10.850;2024-03-25T07:29:29;6.38;;;3.10;;
41436;SDS011;27178;49.460;10.850;2024-03-25T07:31:56;3.70;;;3.07;;
41436;SDS011;27178;49.460;10.850;2024-03-25T07:34:23;5.23;;;3.17;;
41436;SDS011;27178;49.460;10.850;2024-03-25T07:36:50;7.03;;;3.53;;
41436;SDS011;27178;49.460;10.850;2024-03-25T07:39:16;3.93;;;2.70;;
41436;SDS011;27178;49.460;10.850;2024-03-25T07:41:43;6.87;;;3.33;;
41436;SDS011;27178;49.460;10.850;2024-03-25T07:44:09;4.13;;;2.87;;
41436;SDS011;27178;49.460;10.850;2024-03-25T07:46:35;3.20;;;2.90;;
41436;SDS011;27178;49.460;10.850;2024-03-25T07:49:02;4.40;;;2.75;;
41436;SDS011;27178;49.460;10.850;2024-03-25T07:51:30;4.33;;;2.53;;
41436;SDS011;27178;49.460;10.850;2024-03-25T07:53:56;3.23;;;2.27;;
41436;SDS011;27178;49.460;10.850;2024-03-25T07:56:22;3.57;;;2.73;;
41436;SDS011;27178;49.460;10.850;2024-03-25T07:58:48;4.40;;;2.58;;
41436;SDS011;27178;49.460;10.850;2024-03-25T08:01:15;7.15;;;2.92;;
41436;SDS011;27178;49.460;10.850;2024-03-25T08:03:41;4.43;;;2.63;;
41436;SDS011;27178;49.460;10.850;2024-03-25T08:06:07;4.50;;;2.70;;
41436;SDS011;27178;49.460;10.850;2024-03-25T08:08:35;3.87;;;2.20;;
41436;SDS011;27178;49.460;10.850;2024-03-25T08:11:02;5.28;;;2.60;;
41436;SDS011;27178;49.460;10.850;2024-03-25T08:13:28;3.67;;;2.80;;
41436;SDS011;27178;49.460;10.850;2024-03-25T08:15:55;2.88;;;2.35;;
41436;SDS011;27178;49.460;10.850;2024-03-25T08:18:21;4.83;;;2.67;;
41436;SDS011;27178;49.460;10.850;2024-03-25T08:20:47;6.50;;;3.08;;
41436;SDS011;27178;49.460;10.850;2024-03-25T08:23:14;3.28;;;2.30;;
41436;SDS011;27178;49.460;10.850;2024-03-25T08:25:42;5.03;;;2.50;;
41436;SDS011;27178;49.460;10.850;2024-03-25T08:28:08;3.10;;;2.60;;
41436;SDS011;27178;49.460;10.850;2024-03-25T08:30:34;3.33;;;2.58;;
41436;SDS011;27178;49.460;10.850;2024-03-25T08:33:01;6.13;;;3.13;;
41436;SDS011;27178;49.460;10.850;2024-03-25T08:35:27;4.57;;;3.10;;
41436;SDS011;27178;49.460;10.850;2024-03-25T08:37:54;3.90;;;2.88;;
41436;SDS011;27178;49.460;10.850;2024-03-25T08:40:20;3.57;;;3.10;;
41436;SDS011;27178;49.460;10.850;2024-03-25T08:42:48;4.00;;;2.80;;
41436;SDS011;27178;49.460;10.850;2024-03-25T08:45:15;4.55;;;2.90;;
41436;SDS011;27178;49.460;10.850;2024-03-25T08:47:41;4.77;;;2.93;;
41436;SDS011;27178;49.460;10.850;2024-03-25T08:50:07;3.17;;;2.60;;
41436;SDS011;27178;49.460;10.850;2024-03-25T08:52:34;3.10;;;2.53;;
41436;SDS011;27178;49.460;10.850;2024-03-25T08:55:01;4.85;;;3.08;;
41436;SDS011;27178;49.460;10.850;2024-03-25T08:57:27;5.03;;;2.90;;
41436;SDS011;27178;49.460;10.850;2024-03-25T08:59:55;4.60;;;2.90;;
41436;SDS011;27178;49.460;10.850;2024-03-25T09:02:21;3.72;;;2.90;;
41436;SDS011;27178;49.460;10.850;2024-03-25T09:04:47;5.07;;;2.70;;
41436;SDS011;27178;49.460;10.850;2024-03-25T09:07:14;5.53;;;2.88;;
41436;SDS011;27178;49.460;10.850;2024-03-25T09:09:40;5.55;;;3.05;;
41436;SDS011;27178;49.460;10.850;2024-03-25T09:12:25;6.30;;;3.40;;
41436;SDS011;27178;49.460;10.850;2024-03-25T09:14:51;5.53;;;3.38;;
41436;SDS011;27178;49.460;10.850;2024-03-25T09:17:19;4.30;;;3.00;;
41436;SDS011;27178;49.460;10.850;2024-03-25T09:19:45;3.17;;;2.73;;
41436;SDS011;27178;49.460;10.850;2024-03-25T09:22:11;3.23;;;2.30;;
41436;SDS011;27178;49.460;10.850;2024-03-25T09:24:38;4.25;;;2.78;;
41436;SDS011;27178;49.460;10.850;2024-03-25T09:27:04;4.10;;;2.47;;
41436;SDS011;27178;49.460;10.850;2024-03-25T09:29:30;2.40;;;2.20;;
41436;SDS011;27178;49.460;10.850;2024-03-25T09:31:57;3.97;;;2.40;;
41436;SDS011;27178;49.460;10.850;2024-03-25T09:34:24;3.25;;;2.60;;
41436;SDS011;27178;49.460;10.850;2024-03-25T09:36:51;3.85;;;2.80;;
41436;SDS011;27178;49.460;10.850;2024-03-25T09:39:17;3.40;;;2.78;;
41436;SDS011;27178;49.460;10.850;2024-03-25T09:41:44;3.90;;;2.42;;
41436;SDS011;27178;49.460;10.850;2024-03-25T09:44:12;3.13;;;2.75;;
41436;SDS011;27178;49.460;10.850;2024-03-25T09:46:38;3.15;;;2.70;;
41436;SDS011;27178;49.460;10.850;2024-03-25T09:49:05;3.90;;;2.80;;
41436;SDS011;27178;49.460;10.850;2024-03-25T09:51:33;2.67;;;2.25;;
41436;SDS011;27178;49.460;10.850;2024-03-25T09:53:59;4.50;;;2.72;;
41436;SDS011;27178;49.460;10.850;2024-03-25T09:56:25;4.82;;;2.65;;
41436;SDS011;27178;49.460;10.850;2024-03-25T09:58:52;3.75;;;2.50;;
41436;SDS011;27178;49.460;10.850;2024-03-25T10:01:19;3.95;;;2.30;;
41436;SDS011;27178;49.460;10.850;2024-03-25T10:03:45;3.35;;;2.50;;
41436;SDS011;27178;49.460;10.850;2024-03-25T10:06:12;3.97;;;2.42;;
41436;SDS011;27178;49.460;10.850;2024-03-25T10:08:39;3.83;;;3.20;;
41436;SDS011;27178;49.460;10.850;2024-03-25T10:11:06;4.07;;;3.05;;
41436;SDS011;27178;49.460;10.850;2024-03-25T10:13:32;3.47;;;2.70;;
41436;SDS011;27178;49.460;10.850;2024-03-25T10:15:59;4.60;;;3.20;;
41436;SDS011;27178;49.460;10.850;2024-03-25T10:18:25;3.58;;;2.50;;
41436;SDS011;27178;49.460;10.850;2024-03-25T10:20:51;2.60;;;2.33;;
41436;SDS011;27178;49.460;10.850;2024-03-25T10:23:19;3.70;;;2.10;;
41436;SDS011;27178;49.460;10.850;2024-03-25T10:25:48;4.15;;;2.00;;
41436;SDS011;27178;49.460;10.850;2024-03-25T10:28:17;3.67;;;2.08;;
41436;SDS011;27178;49.460;10.850;2024-03-25T10:30:43;2.08;;;1.88;;
41436;SDS011;27178;49.460;10.850;2024-03-25T10:33:09;3.90;;;2.22;;
41436;SDS011;27178;49.460;10.850;2024-03-25T10:35:36;2.90;;;1.98;;
41436;SDS011;27178;49.460;10.850;2024-03-25T10:38:05;2.28;;;1.90;;
41436;SDS011;27178;49.460;10.850;2024-03-25T10:40:34;2.42;;;1.73;;
41436;SDS011;27178;49.460;10.850;2024-03-25T10:43:03;2.70;;;1.83;;
41436;SDS011;27178;49.460;10.850;2024-03-25T10:45:30;2.15;;;1.70;;
41436;SDS011;27178;49.460;10.850;2024-03-25T10:47:57;2.95;;;1.80;;
41436;SDS011;27178;49.460;10.850;2024-03-25T10:50:26;2.78;;;1.63;;
41436;SDS011;27178;49.460;10.850;2024-03-25T10:52:54;2.47;;;2.03;;
41436;SDS011;27178;49.460;10.850;2024-03-25T10:55:22;4.05;;;2.10;;
41436;SDS011;27178;49.460;10.850;2024-03-25T10:57:50;2.70;;;1.65;;
41436;SDS011;27178;49.460;10.850;2024-03-25T11:00:18;1.80;;;1.60;;
41436;SDS011;27178;49.460;10.850;2024-03-25T11:02:45;2.25;;;2.05;;
41436;SDS011;27178;49.460;10.850;2024-03-25T11:05:12;2.25;;;1.48;;
41436;SDS011;27178;49.460;10.850;2024-03-25T11:07:39;2.55;;;1.70;;
41436;SDS011;27178;49.460;10.850;2024-03-25T11:10:06;1.90;;;1.60;;
41436;SDS011;27178;49.460;10.850;2024-03-25T11:12:34;2.88;;;2.00;;
41436;SDS011;27178;49.460;10.850;2024-03-25T11:15:02;2.83;;;2.08;;
41436;SDS011;27178;49.460;10.850;2024-03-25T11:17:30;1.63;;;1.52;;
41436;SDS011;27178;49.460;10.850;2024-03-25T11:20:07;3.53;;;1.80;;
41436;SDS011;27178;49.460;10.850;2024-03-25T11:22:35;2.17;;;1.88;;
41436;SDS011;27178;49.460;10.850;2024-03-25T11:25:12;2.22;;;1.40;;
41436;SDS011;27178;49.460;10.850;2024-03-25T11:27:39;2.42;;;1.73;;
41436;SDS011;27178;49.460;10.850;2024-03-25T11:30:09;1.70;;;1.60;;
41436;SDS011;27178;49.460;10.850;2024-03-25T11:32:47;3.22;;;2.38;;
41436;SDS011;27178;49.460;10.850;2024-03-25T11:35:17;2.38;;;2.13;;
41436;SDS011;27178;49.460;10.850;2024-03-25T11:37:44;2.78;;;1.80;;
41436;SDS011;27178;49.460;10.850;2024-03-25T11:40:12;3.60;;;1.77;;
41436;SDS011;27178;49.460;10.850;2024-03-25T11:42:38;3.08;;;1.70;;
41436;SDS011;27178;49.460;10.850;2024-03-25T11:45:05;1.90;;;1.65;;
41436;SDS011;27178;49.460;10.850;2024-03-25T11:47:32;3.83;;;2.10;;
41436;SDS011;27178;49.460;10.850;2024-03-25T11:50:00;1.67;;;1.58;;
41436;SDS011;27178;49.460;10.850;2024-03-25T11:52:32;2.33;;;2.00;;
41436;SDS011;27178;49.460;10.850;2024-03-25T11:54:59;4.13;;;2.58;;
41436;SDS011;27178;49.460;10.850;2024-03-25T11:57:25;2.53;;;1.77;;
41436;SDS011;27178;49.460;10.850;2024-03-25T11:59:51;2.15;;;1.60;;
41436;SDS011;27178;49.460;10.850;2024-03-25T12:02:18;1.75;;;1.65;;
41436;SDS011;27178;49.460;10.850;2024-03-25T12:04:44;2.67;;;1.90;;
41436;SDS011;27178;49.460;10.850;2024-03-25T12:07:13;1.90;;;1.55;;
41436;SDS011;27178;49.460;10.850;2024-03-25T12:09:39;1.60;;;1.50;;
41436;SDS011;27178;49.460;10.850;2024-03-25T12:12:21;1.90;;;1.50;;
41436;SDS011;27178;49.460;10.850;2024-03-25T12:14:47;4.05;;;2.15;;
41436;SDS011;27178;49.460;10.850;2024-03-25T12:17:13;4.05;;;1.92;;
41436;SDS011;27178;49.460;10.850;2024-03-25T12:19:40;1.60;;;1.50;;
41436;SDS011;27178;49.460;10.850;2024-03-25T12:22:07;3.63;;;1.80;;
41436;SDS011;27178;49.460;10.850;2024-03-25T12:24:34;2.35;;;1.63;;
41436;SDS011;27178;49.460;10.850;2024-03-25T12:27:01;2.13;;;1.70;;
41436;SDS011;27178;49.460;10.850;2024-03-25T12:29:28;2.45;;;1.70;;
41436;SDS011;27178;49.460;10.850;2024-03-25T12:31:54;1.48;;;1.38;;
41436;SDS011;27178;49.460;10.850;2024-03-25T12:34:20;2.63;;;1.67;;
41436;SDS011;27178;49.460;10.850;2024-03-25T12:36:47;2.83;;;1.88;;
41436;SDS011;27178;49.460;10.850;2024-03-25T12:39:17;2.63;;;1.80;;
41436;SDS011;27178;49.460;10.850;2024-03-25T12:41:45;1.88;;;1.60;;
41436;SDS011;27178;49.460;10.850;2024-03-25T12:44:12;1.92;;;1.70;;
41436;SDS011;27178;49.460;10.850;2024-03-25T12:46:38;3.47;;;1.55;;
41436;SDS011;27178;49.460;10.850;2024-03-25T12:49:05;2.22;;;1.95;;
41436;SDS011;27178;49.460;10.850;2024-03-25T12:51:31;5.13;;;1.70;;
41436;SDS011;27178;49.460;10.850;2024-03-25T12:53:58;2.35;;;1.98;;
41436;SDS011;27178;49.460;10.850;2024-03-25T12:56:24;1.63;;;1.52;;
41436;SDS011;27178;49.460;10.850;2024-03-25T12:58:52;3.63;;;2.05;;
41436;SDS011;27178;49.460;10.850;2024-03-25T13:01:18;2.67;;;1.92;;
41436;SDS011;27178;49.460;10.850;2024-03-25T13:03:45;1.40;;;1.30;;
41436;SDS011;27178;49.460;10.850;2024-03-25T13:06:11;1.42;;;1.33;;
41436;SDS011;27178;49.460;10.850;2024-03-25T13:08:37;2.40;;;1.85;;
41436;SDS011;27178;49.460;10.850;2024-03-25T13:11:03;1.48;;;1.38;;
41436;SDS011;27178;49.460;10.850;2024-03-25T13:13:30;1.33;;;1.27;;
41436;SDS011;27178;49.460;10.850;2024-03-25T13:15:57;1.60;;;1.50;;
41436;SDS011;27178;49.460;10.850;2024-03-25T13:18:24;1.80;;;1.55;;
41436;SDS011;27178;49.460;10.850;2024-03-25T13:20:50;1.45;;;1.33;;
41436;SDS011;27178;49.460;10.850;2024-03-25T13:23:16;1.30;;;1.20;;
41436;SDS011;27178;49.460;10.850;2024-03-25T13:25:43;1.45;;;1.33;;
41436;SDS011;27178;49.460;10.850;2024-03-25T13:28:09;1.50;;;1.40;;
41436;SDS011;27178;49.460;10.850;2024-03-25T13:30:35;1.40;;;1.30;;
41436;SDS011;27178;49.460;10.850;2024-03-25T13:33:03;1.40;;;1.30;;
41436;SDS011;27178;49.460;10.850;2024-03-25T13:35:30;1.90;;;1.73;;
41436;SDS011;27178;49.460;10.850;2024-03-25T13:37:56;1.85;;;1.48;;
41436;SDS011;27178;49.460;10.850;2024-03-25T13:40:22;1.50;;;1.20;;
41436;SDS011;27178;49.460;10.850;2024-03-25T13:42:49;2.33;;;1.60;;
41436;SDS011;27178;49.460;10.850;2024-03-25T13:45:15;1.27;;;1.17;;
41436;SDS011;27178;49.460;10.850;2024-03-25T13:47:42;1.92;;;1.60;;
41436;SDS011;27178;49.460;10.850;2024-03-25T13:50:10;1.88;;;1.40;;
41436;SDS011;27178;49.460;10.850;2024-03-25T13:52:36;1.17;;;1.08;;
41436;SDS011;27178;49.460;10.850;2024-03-25T13:55:03;1.45;;;1.35;;
41436;SDS011;27178;49.460;10.850;2024-03-25T13:57:30;1.55;;;1.23;;
41436;SDS011;27178;49.460;10.850;2024-03-25T13:59:56;1.42;;;1.33;;
41436;SDS011;27178;49.460;10.850;2024-03-25T14:02:23;1.45;;;1.35;;
41436;SDS011;27178;49.460;10.850;2024-03-25T14:04:49;3.10;;;1.40;;
41436;SDS011;27178;49.460;10.850;2024-03-25T14:07:17;1.58;;;1.48;;
41436;SDS011;27178;49.460;10.850;2024-03-25T14:09:43;1.30;;;1.20;;
41436;SDS011;27178;49.460;10.850;2024-03-25T14:12:09;1.48;;;1.38;;
41436;SDS011;27178;49.460;10.850;2024-03-25T14:14:36;2.00;;;1.50;;
41436;SDS011;27178;49.460;10.850;2024-03-25T14:17:02;1.83;;;1.45;;
41436;SDS011;27178;49.460;10.850;2024-03-25T14:19:29;1.20;;;1.10;;
41436;SDS011;27178;49.460;10.850;2024-03-25T14:21:55;1.85;;;1.33;;
41436;SDS011;27178;49.460;10.850;2024-03-25T14:24:23;1.33;;;1.20;;
41436;SDS011;27178;49.460;10.850;2024-03-25T14:26:49;1.27;;;1.17;;
41436;SDS011;27178;49.460;10.850;2024-03-25T14:29:16;1.92;;;1.30;;
41436;SDS011;27178;49.460;10.850;2024-03-25T14:31:42;2.30;;;1.77;;
41436;SDS011;27178;49.460;10.850;2024-03-25T14:34:08;1.58;;;1.45;;